createdAt,value
2022-10-18T00:02:42.660Z,25.20
2022-10-18T00:05:46.603Z,27.65
2022-10-18T00:08:49.078Z,24.80
2022-10-18T00:11:52.060Z,27.83
2022-10-18T00:14:54.530Z,27.05
2022-10-18T00:17:57.499Z,27.60
2022-10-18T00:21:02.259Z,27.13
2022-10-18T00:24:05.771Z,27.27
2022-10-18T00:27:08.406Z,25.05
2022-10-18T00:30:11.764Z,26.30
2022-10-18T00:33:14.163Z,25.27
2022-10-18T01:25:50.812Z,26.70
2022-10-18T01:29:21.797Z,25.05
2022-10-18T01:32:31.274Z,24.52
2022-10-18T01:35:40.790Z,25.80
2022-10-18T01:38:45.277Z,26.83
2022-10-18T01:41:51.039Z,25.45
2022-10-18T01:44:54.799Z,26.80
2022-10-18T01:47:59.259Z,28.58
2022-10-18T01:51:03.810Z,25.10
2022-10-18T01:54:06.823Z,28.12
2022-10-18T01:57:35.700Z,27.37
2022-10-18T02:00:42.347Z,20.75
2022-10-18T02:03:48.403Z,26.95
2022-10-18T02:06:58.703Z,26.98
2022-10-18T02:10:06.698Z,23.65
2022-10-18T02:13:13.421Z,24.65
2022-10-18T02:16:39.343Z,26.25
2022-10-18T02:19:50.191Z,23.23
2022-10-18T02:22:55.771Z,25.77
2022-10-18T02:25:58.697Z,22.60
2022-10-18T02:29:01.909Z,23.92
2022-10-18T02:32:10.758Z,24.12
2022-10-18T02:35:34.562Z,22.90
2022-10-18T02:41:41.764Z,23.23
2022-10-18T02:44:44.459Z,19.58
2022-10-18T02:47:47.329Z,24.20
2022-10-18T02:50:49.948Z,23.50
2022-10-18T02:53:52.683Z,20.35
2022-10-18T02:56:55.349Z,22.40
2022-10-18T02:59:58.102Z,21.02
2022-10-18T03:03:01.107Z,21.15
2022-10-18T03:06:04.098Z,21.10
2022-10-18T03:09:07.377Z,23.58
2022-10-18T03:12:10.129Z,21.52
2022-10-18T03:15:12.732Z,23.50
2022-10-18T03:18:15.759Z,20.77
2022-10-18T03:21:18.454Z,24.58
2022-10-18T03:24:21.259Z,21.23
2022-10-18T03:27:23.901Z,21.67
2022-10-18T03:30:26.650Z,21.87
2022-10-18T03:33:29.901Z,26.10
2022-10-18T03:39:36.513Z,23.75
2022-10-18T03:42:39.348Z,20.12
2022-10-18T03:45:43.357Z,21.83
2022-10-18T03:48:46.146Z,21.48
2022-10-18T03:51:49.018Z,24.85
2022-10-18T03:54:51.796Z,21.70
2022-10-18T03:57:54.503Z,20.73
2022-10-18T04:00:57.259Z,20.80
2022-10-18T04:04:00.180Z,18.50
2022-10-18T04:07:02.607Z,24.80
2022-10-18T04:10:06.193Z,22.27
2022-10-18T04:13:08.896Z,18.40
2022-10-18T04:16:11.831Z,22.33
2022-10-18T04:19:14.391Z,28.90
2022-10-18T04:22:17.445Z,26.35
2022-10-18T04:25:19.940Z,20.95
2022-10-18T04:28:22.800Z,26.23
2022-10-18T04:31:25.565Z,22.13
2022-10-18T04:34:28.483Z,21.77
2022-10-18T04:37:31.408Z,24.40
2022-10-18T04:40:34.909Z,24.15
2022-10-18T04:43:37.594Z,24.17
2022-10-18T04:49:42.844Z,22.42
2022-10-18T04:52:46.021Z,22.25
2022-10-18T04:55:49.919Z,26.17
2022-10-18T04:58:52.863Z,21.95
2022-10-18T05:01:55.422Z,24.07
2022-10-18T05:04:58.470Z,23.98
2022-10-18T05:08:01.017Z,23.13
2022-10-18T05:11:04.658Z,20.95
2022-10-18T05:14:10.181Z,21.60
2022-10-18T05:17:13.142Z,26.02
2022-10-18T05:20:15.905Z,23.73
2022-10-18T05:23:19.100Z,19.48
2022-10-18T05:26:21.979Z,24.17
2022-10-18T05:29:25.165Z,25.40
2022-10-18T05:32:27.715Z,25.50
2022-10-18T05:35:30.627Z,23.95
2022-10-18T05:38:33.174Z,26.40
2022-10-18T05:44:38.786Z,25.30
2022-10-18T05:47:41.760Z,26.73
2022-10-18T05:50:46.169Z,29.87
2022-10-18T05:53:49.120Z,26.70
2022-10-18T05:56:52.300Z,27.73
2022-10-18T05:59:55.207Z,24.48
2022-10-18T06:03:00.185Z,30.97
2022-10-18T06:06:06.817Z,25.92
2022-10-18T06:09:09.591Z,27.23
2022-10-18T06:15:14.951Z,24.90
2022-10-18T06:18:17.904Z,24.42
2022-10-18T06:21:21.312Z,25.33
2022-10-18T06:24:24.279Z,27.17
2022-10-18T06:27:26.715Z,28.57
2022-10-18T06:30:29.576Z,26.10
2022-10-18T06:33:32.765Z,31.13
2022-10-18T06:36:35.814Z,27.85
2022-10-18T06:39:38.337Z,30.37
2022-10-18T06:45:43.788Z,25.73
2022-10-18T06:48:46.679Z,25.73
2022-10-18T06:51:50.071Z,36.07
2022-10-18T06:54:54.013Z,34.60
2022-10-18T06:57:56.678Z,28.30
2022-10-18T07:00:59.722Z,29.05
2022-10-18T07:04:02.200Z,26.05
2022-10-18T07:07:05.148Z,25.83
2022-10-18T07:10:11.192Z,25.30
2022-10-18T07:13:32.780Z,27.15
2022-10-18T07:16:36.156Z,28.75
2022-10-18T07:19:39.193Z,28.17
2022-10-18T07:22:41.678Z,22.15
2022-10-18T07:25:44.850Z,26.45
2022-10-18T07:28:50.702Z,24.73
2022-10-18T07:31:53.685Z,23.05
2022-10-18T07:34:56.091Z,25.45
2022-10-18T07:37:59.282Z,23.17
2022-10-18T07:41:03.803Z,26.17
2022-10-18T07:44:06.805Z,24.15
2022-10-18T07:47:09.261Z,27.13
2022-10-18T07:50:12.189Z,26.33
2022-10-18T07:53:15.115Z,19.73
2022-10-18T07:56:21.024Z,23.65
2022-10-18T07:59:23.972Z,18.87
2022-10-18T08:02:26.888Z,21.33
2022-10-18T08:05:29.691Z,20.92
2022-10-18T08:08:32.862Z,22.35
2022-10-18T08:11:35.584Z,21.70
2022-10-18T08:14:38.201Z,20.08
2022-10-18T08:17:41.048Z,18.77
2022-10-18T08:20:46.618Z,19.30
2022-10-18T08:23:50.288Z,21.42
2022-10-18T08:26:52.976Z,18.80
2022-10-18T08:29:55.701Z,17.12
2022-10-18T08:32:58.367Z,19.65
2022-10-18T08:36:03.402Z,20.62
2022-10-18T08:39:06.075Z,23.65
2022-10-18T08:42:14.132Z,18.67
2022-10-18T08:45:30.009Z,17.23
2022-10-18T08:48:39.152Z,17.08
2022-10-18T08:51:50.898Z,13.43
2022-10-18T08:55:10.946Z,12.00
2022-10-18T08:58:22.784Z,13.15
2022-10-18T09:01:53.655Z,12.20
2022-10-18T09:05:05.229Z,12.95
2022-10-18T09:08:32.072Z,12.50
2022-10-18T09:11:43.597Z,10.70
2022-10-18T09:15:13.306Z,12.07
2022-10-18T09:18:19.083Z,13.93
2022-10-18T09:21:42.430Z,17.77
2022-10-18T09:24:48.357Z,12.65
2022-10-18T09:27:56.955Z,13.82
2022-10-18T09:31:24.567Z,16.77
2022-10-18T09:34:34.748Z,11.70
2022-10-18T09:37:37.995Z,11.35
2022-10-18T09:41:19.024Z,17.62
2022-10-18T09:44:33.354Z,13.93
2022-10-18T09:47:41.505Z,12.85
2022-10-18T09:50:50.495Z,13.00
2022-10-18T09:53:59.031Z,10.90
2022-10-18T09:57:34.568Z,11.57
2022-10-18T10:00:48.162Z,9.45
2022-10-18T10:03:52.007Z,12.15
2022-10-18T10:06:56.629Z,11.57
2022-10-18T10:10:19.944Z,8.63
2022-10-18T10:13:26.313Z,10.52
2022-10-18T10:16:29.329Z,11.38
2022-10-18T10:19:39.959Z,9.57
2022-10-18T10:22:46.636Z,10.82
2022-10-18T10:25:55.843Z,9.57
2022-10-18T10:28:59.503Z,13.88
2022-10-18T10:32:03.978Z,11.90
2022-10-18T10:35:54.025Z,14.00
2022-10-18T10:39:21.491Z,10.27
2022-10-18T10:42:24.553Z,8.82
2022-10-18T10:45:35.305Z,9.13
2022-10-18T10:48:48.396Z,8.43
2022-10-18T10:52:08.336Z,9.93
2022-10-18T10:55:35.429Z,9.48
2022-10-18T10:58:40.628Z,8.90
2022-10-18T11:01:43.876Z,11.20
2022-10-18T11:04:50.272Z,9.88
2022-10-18T11:07:58.201Z,7.72
2022-10-18T11:11:00.600Z,9.07
2022-10-18T11:14:26.289Z,8.50
2022-10-18T11:17:41.621Z,7.50
2022-10-18T11:20:56.315Z,11.93
2022-10-18T11:24:02.042Z,10.30
2022-10-18T11:27:25.160Z,12.48
2022-10-18T11:30:49.676Z,10.07
2022-10-18T11:34:20.594Z,9.85
2022-10-18T11:37:38.756Z,7.05
2022-10-18T11:40:50.257Z,7.93
2022-10-18T11:44:03.649Z,8.35
2022-10-18T11:47:13.241Z,9.13
2022-10-18T11:50:28.113Z,8.60
2022-10-18T11:53:37.289Z,7.62
2022-10-18T11:56:58.251Z,7.05
2022-10-18T12:00:20.749Z,11.73
2022-10-18T12:03:45.345Z,7.10
2022-10-18T12:06:52.239Z,10.32
2022-10-18T12:09:56.585Z,10.45
2022-10-18T12:13:03.907Z,14.40
2022-10-18T12:16:09.357Z,11.32
2022-10-18T12:19:23.378Z,7.82
2022-10-18T12:22:38.087Z,6.72
2022-10-18T12:25:50.991Z,7.32
2022-10-18T12:29:08.721Z,9.15
2022-10-18T12:32:14.796Z,8.68
2022-10-18T12:35:19.695Z,9.50
2022-10-18T12:38:35.545Z,7.60
2022-10-18T12:41:38.683Z,8.15
2022-10-18T12:44:42.291Z,9.55
2022-10-18T12:47:45.085Z,9.75
2022-10-18T12:50:58.976Z,8.40
2022-10-18T12:54:04.207Z,10.20
2022-10-18T13:00:29.639Z,6.78
2022-10-18T13:03:54.212Z,11.38
2022-10-18T13:06:59.920Z,9.57
2022-10-18T13:10:15.007Z,8.48
2022-10-18T13:13:39.573Z,11.25
2022-10-18T13:16:49.013Z,7.15
2022-10-18T13:20:28.100Z,9.82
2022-10-18T13:23:43.249Z,7.90
2022-10-18T13:27:31.337Z,9.20
2022-10-18T13:30:46.310Z,6.12
2022-10-18T13:33:49.601Z,6.28
2022-10-18T13:37:20.490Z,6.20
2022-10-18T13:40:25.611Z,8.18
2022-10-18T13:43:55.052Z,8.32
2022-10-18T13:46:57.819Z,7.18
2022-10-18T13:53:30.093Z,6.10
2022-10-18T13:56:52.966Z,5.93
2022-10-18T14:00:16.820Z,7.12
2022-10-18T14:03:58.923Z,6.18
2022-10-18T14:07:06.019Z,7.28
2022-10-18T14:10:43.815Z,9.90
2022-10-18T14:14:00.181Z,7.90
2022-10-18T14:17:21.655Z,9.30
2022-10-18T14:20:49.445Z,6.10
2022-10-18T14:24:00.813Z,6.35
2022-10-18T14:27:16.699Z,8.95
2022-10-18T14:30:25.588Z,10.20
2022-10-18T14:33:58.086Z,10.25
2022-10-18T14:40:04.748Z,7.60
2022-10-18T14:43:14.088Z,10.40
2022-10-18T14:46:30.032Z,9.15
2022-10-18T14:49:42.361Z,7.37
2022-10-18T14:52:45.443Z,10.27
2022-10-18T14:55:56.285Z,7.07
2022-10-18T14:59:03.575Z,10.93
2022-10-18T15:02:24.557Z,7.12
2022-10-18T15:05:27.350Z,9.73
2022-10-18T15:08:44.020Z,9.43
2022-10-18T15:11:47.179Z,9.90
2022-10-18T15:14:51.185Z,7.30
2022-10-18T15:17:54.910Z,7.55
2022-10-18T15:21:22.253Z,8.50
2022-10-18T15:24:27.527Z,12.35
2022-10-18T15:27:35.241Z,9.80
2022-10-18T15:30:42.729Z,8.73
2022-10-18T15:33:45.772Z,7.68
2022-10-18T15:36:49.813Z,7.43
2022-10-18T15:40:29.027Z,13.98
2022-10-18T15:43:34.427Z,11.10
2022-10-18T15:46:39.515Z,15.18
2022-10-18T15:49:44.944Z,17.58
2022-10-18T15:52:48.010Z,10.38
2022-10-18T15:55:52.635Z,10.80
2022-10-18T15:58:57.316Z,10.88
2022-10-18T16:01:59.859Z,9.15
2022-10-18T16:05:03.064Z,12.20
2022-10-18T16:08:05.897Z,13.75
2022-10-18T16:11:21.216Z,12.50
2022-10-18T16:14:24.149Z,15.68
2022-10-18T16:17:27.404Z,16.00
2022-10-18T16:20:30.072Z,10.07
2022-10-18T16:23:33.287Z,15.77
2022-10-18T16:26:36.466Z,12.95
2022-10-18T16:29:41.240Z,17.15
2022-10-18T16:32:43.704Z,14.82
2022-10-18T16:38:49.560Z,13.45
2022-10-18T16:41:52.684Z,12.63
2022-10-18T16:44:55.133Z,11.60
2022-10-18T16:47:58.020Z,17.23
2022-10-18T16:51:01.430Z,13.75
2022-10-18T16:54:05.452Z,14.70
2022-10-18T16:57:09.839Z,21.45
2022-10-18T17:00:19.095Z,20.08
2022-10-18T17:03:21.882Z,17.70
2022-10-18T17:06:27.869Z,13.18
2022-10-18T17:09:30.735Z,17.67
2022-10-18T17:12:34.042Z,14.27
2022-10-18T17:18:39.425Z,12.90
2022-10-18T17:21:41.883Z,13.32
2022-10-18T17:24:44.950Z,15.88
2022-10-18T17:27:47.505Z,17.80
2022-10-18T17:33:54.738Z,13.43
2022-10-18T17:36:57.781Z,21.83
2022-10-18T17:40:00.404Z,15.75
2022-10-18T17:46:06.102Z,21.48
2022-10-18T17:49:09.046Z,15.85
2022-10-18T17:52:11.978Z,16.95
2022-10-18T17:55:15.577Z,18.77
2022-10-18T17:58:18.228Z,21.35
2022-10-18T18:01:23.213Z,20.20
2022-10-18T18:04:26.033Z,23.83
2022-10-18T18:07:28.676Z,17.67
2022-10-18T18:10:35.219Z,16.40
2022-10-18T18:13:38.039Z,16.98
2022-10-18T18:16:42.960Z,13.70
2022-10-18T18:19:45.642Z,15.85
2022-10-18T18:22:48.451Z,20.55
2022-10-18T18:25:58.177Z,18.20
2022-10-18T18:32:09.182Z,18.35
2022-10-18T18:35:11.878Z,16.55
2022-10-18T18:38:14.568Z,14.87
2022-10-18T18:41:25.212Z,18.95
2022-10-18T18:44:28.355Z,17.52
2022-10-18T18:50:37.963Z,24.35
2022-10-18T18:53:41.828Z,20.62
2022-10-18T18:56:44.573Z,18.62
2022-10-18T18:59:47.289Z,18.70
2022-10-18T19:02:49.977Z,20.80
2022-10-18T19:06:02.747Z,20.30
2022-10-18T19:09:19.669Z,26.08
2022-10-18T19:12:22.534Z,26.15
2022-10-18T19:15:25.425Z,20.17
2022-10-18T19:21:33.719Z,26.05
2022-10-18T19:24:37.320Z,22.23
2022-10-18T19:27:40.070Z,25.75
2022-10-18T19:30:46.671Z,24.42
2022-10-18T19:33:59.354Z,21.67
2022-10-18T19:37:03.512Z,24.33
2022-10-18T19:40:06.793Z,22.08
2022-10-18T19:43:09.728Z,22.33
2022-10-18T19:46:12.464Z,17.87
2022-10-18T19:49:15.787Z,18.98
2022-10-18T19:52:18.625Z,24.75
2022-10-18T19:55:21.405Z,20.85
2022-10-18T19:58:24.051Z,20.70
2022-10-18T20:01:28.872Z,21.05
2022-10-18T20:04:34.637Z,21.48
2022-10-18T20:07:37.106Z,19.00
2022-10-18T20:10:40.199Z,23.80
2022-10-18T20:13:43.284Z,19.95
2022-10-18T20:16:46.264Z,25.52
2022-10-18T20:19:48.809Z,23.08
2022-10-18T20:22:51.684Z,26.37
2022-10-18T20:25:59.386Z,19.80
2022-10-18T20:29:02.560Z,18.40
2022-10-18T20:32:05.295Z,23.90
2022-10-18T20:38:10.719Z,18.17
2022-10-18T20:41:19.931Z,22.45
2022-10-18T20:44:22.744Z,20.58
2022-10-18T20:50:27.808Z,25.58
2022-10-18T20:53:33.069Z,19.00
2022-10-18T20:56:38.888Z,20.88
2022-10-18T20:59:41.904Z,21.15
2022-10-18T21:02:44.368Z,25.48
2022-10-18T21:05:47.252Z,20.85
2022-10-18T21:08:57.643Z,22.75
2022-10-18T21:12:00.549Z,22.60
2022-10-18T21:15:03.344Z,23.10
2022-10-18T21:21:11.000Z,20.45
2022-10-18T21:24:14.069Z,20.48
2022-10-18T21:27:16.501Z,27.10
2022-10-18T21:30:19.700Z,25.00
2022-10-18T21:33:22.663Z,23.30
2022-10-18T21:36:27.701Z,23.17
2022-10-18T21:39:30.232Z,25.73
2022-10-18T21:42:33.805Z,24.80
2022-10-18T21:45:36.480Z,24.17
2022-10-18T21:48:44.180Z,25.42
2022-10-18T21:51:46.915Z,23.52
2022-10-18T21:54:49.973Z,22.08
2022-10-18T21:57:52.620Z,23.90
2022-10-18T22:00:55.627Z,26.25
2022-10-18T22:04:00.168Z,24.00
2022-10-18T22:07:04.843Z,24.55
2022-10-18T22:10:07.953Z,24.90
2022-10-18T22:13:10.547Z,24.73
2022-10-18T22:16:15.108Z,25.62
2022-10-18T22:19:18.000Z,26.85
2022-10-18T22:22:20.758Z,24.27
2022-10-18T22:25:23.482Z,23.10
2022-10-18T22:28:26.270Z,28.62
2022-10-18T22:31:32.691Z,24.23
2022-10-18T22:34:35.406Z,25.83
2022-10-18T22:37:38.078Z,24.73
2022-10-18T22:40:40.790Z,27.45
2022-10-18T22:43:43.447Z,27.42
2022-10-18T22:46:46.277Z,24.63
2022-10-18T22:49:48.945Z,30.02
2022-10-18T22:52:53.937Z,29.83
2022-10-18T22:55:57.445Z,25.02
2022-10-18T22:59:00.258Z,26.17
2022-10-18T23:02:02.908Z,23.20
2022-10-18T23:05:05.830Z,25.80
2022-10-18T23:08:10.626Z,26.00
2022-10-18T23:11:13.794Z,22.60
2022-10-18T23:14:16.500Z,25.73
2022-10-18T23:17:19.171Z,29.20
2022-10-18T23:20:21.829Z,25.73
2022-10-18T23:23:24.598Z,26.23
2022-10-18T23:26:28.307Z,24.48
2022-10-18T23:29:31.088Z,24.33
2022-10-18T23:32:35.331Z,25.23
2022-10-18T23:35:38.308Z,24.80
2022-10-18T23:38:41.794Z,27.37
2022-10-18T23:41:44.656Z,25.50
2022-10-18T23:44:48.210Z,24.70
2022-10-18T23:47:50.883Z,21.95
2022-10-18T23:50:53.636Z,25.33
2022-10-18T23:53:56.295Z,23.25
2022-10-18T23:56:59.132Z,25.50
